sensor_id;sensor_type;location;lat;lon;timestamp;P1;durP1;ratioP1;P2;durP2;ratioP2
72337;SDS011;60294;64.134;-21.862;2022-09-09T00:01:46;1.67;;;0.80;;
72337;SDS011;60294;64.134;-21.862;2022-09-09T00:09:23;3.88;;;0.80;;
72337;SDS011;60294;64.134;-21.862;2022-09-09T00:12:04;1.88;;;0.70;;
72337;SDS011;60294;64.134;-21.862;2022-09-09T00:14:42;2.85;;;0.80;;
72337;SDS011;60294;64.134;-21.862;2022-09-09T00:17:23;5.78;;;1.33;;
72337;SDS011;60294;64.134;-21.862;2022-09-09T00:22:27;4.85;;;0.98;;
72337;SDS011;60294;64.134;-21.862;2022-09-09T00:25:02;2.97;;;0.80;;
72337;SDS011;60294;64.134;-21.862;2022-09-09T00:32:44;2.92;;;0.70;;
72337;SDS011;60294;64.134;-21.862;2022-09-09T00:37:50;1.77;;;0.57;;
72337;SDS011;60294;64.134;-21.862;2022-09-09T00:40:27;3.40;;;0.85;;
72337;SDS011;60294;64.134;-21.862;2022-09-09T00:48:16;5.45;;;0.90;;
72337;SDS011;60294;64.134;-21.862;2022-09-09T00:51:00;1.20;;;0.60;;
72337;SDS011;60294;64.134;-21.862;2022-09-09T00:53:38;2.72;;;0.70;;
72337;SDS011;60294;64.134;-21.862;2022-09-09T00:56:25;3.55;;;1.63;;
72337;SDS011;60294;64.134;-21.862;2022-09-09T00:59:07;4.00;;;0.93;;
72337;SDS011;60294;64.134;-21.862;2022-09-09T01:01:36;1.40;;;0.90;;
72337;SDS011;60294;64.134;-21.862;2022-09-09T01:04:05;1.10;;;0.40;;
72337;SDS011;60294;64.134;-21.862;2022-09-09T01:06:41;0.93;;;0.45;;
72337;SDS011;60294;64.134;-21.862;2022-09-09T01:09:13;0.57;;;0.30;;
72337;SDS011;60294;64.134;-21.862;2022-09-09T01:14:50;1.52;;;0.40;;
72337;SDS011;60294;64.134;-21.862;2022-09-09T01:17:29;4.43;;;0.73;;
72337;SDS011;60294;64.134;-21.862;2022-09-09T01:20:08;2.58;;;0.43;;
72337;SDS011;60294;64.134;-21.862;2022-09-09T01:31:00;2.78;;;0.50;;
72337;SDS011;60294;64.134;-21.862;2022-09-09T01:33:28;2.30;;;0.45;;
72337;SDS011;60294;64.134;-21.862;2022-09-09T01:35:57;0.82;;;0.30;;
72337;SDS011;60294;64.134;-21.862;2022-09-09T01:38:31;0.20;;;0.20;;
72337;SDS011;60294;64.134;-21.862;2022-09-09T01:40:58;0.80;;;0.30;;
72337;SDS011;60294;64.134;-21.862;2022-09-09T01:43:24;0.30;;;0.30;;
72337;SDS011;60294;64.134;-21.862;2022-09-09T01:45:53;2.45;;;0.52;;
72337;SDS011;60294;64.134;-21.862;2022-09-09T01:48:21;0.30;;;0.30;;
72337;SDS011;60294;64.134;-21.862;2022-09-09T01:50:48;1.25;;;0.35;;
72337;SDS011;60294;64.134;-21.862;2022-09-09T01:53:15;0.80;;;0.30;;
72337;SDS011;60294;64.134;-21.862;2022-09-09T01:55:45;1.23;;;0.40;;
72337;SDS011;60294;64.134;-21.862;2022-09-09T02:06:55;0.38;;;0.30;;
72337;SDS011;60294;64.134;-21.862;2022-09-09T02:09:23;0.32;;;0.30;;
72337;SDS011;60294;64.134;-21.862;2022-09-09T02:11:51;0.30;;;0.30;;
72337;SDS011;60294;64.134;-21.862;2022-09-09T02:14:30;2.10;;;0.20;;
72337;SDS011;60294;64.134;-21.862;2022-09-09T02:17:01;0.63;;;0.13;;
72337;SDS011;60294;64.134;-21.862;2022-09-09T02:19:34;1.00;;;0.30;;
72337;SDS011;60294;64.134;-21.862;2022-09-09T02:22:04;1.58;;;0.30;;
72337;SDS011;60294;64.134;-21.862;2022-09-09T02:24:32;1.35;;;0.73;;
72337;SDS011;60294;64.134;-21.862;2022-09-09T02:27:01;0.13;;;0.13;;
72337;SDS011;60294;64.134;-21.862;2022-09-09T02:29:33;0.55;;;0.20;;
72337;SDS011;60294;64.134;-21.862;2022-09-09T02:32:13;0.20;;;0.20;;
72337;SDS011;60294;64.134;-21.862;2022-09-09T02:34:43;0.28;;;0.20;;
72337;SDS011;60294;64.134;-21.862;2022-09-09T02:37:15;1.85;;;0.40;;
72337;SDS011;60294;64.134;-21.862;2022-09-09T02:39:43;1.13;;;0.22;;
72337;SDS011;60294;64.134;-21.862;2022-09-09T02:42:09;0.98;;;0.30;;
72337;SDS011;60294;64.134;-21.862;2022-09-09T02:44:35;0.63;;;0.30;;
72337;SDS011;60294;64.134;-21.862;2022-09-09T02:49:56;0.20;;;0.20;;
72337;SDS011;60294;64.134;-21.862;2022-09-09T02:58:05;0.20;;;0.20;;
72337;SDS011;60294;64.134;-21.862;2022-09-09T03:00:34;1.08;;;0.20;;
72337;SDS011;60294;64.134;-21.862;2022-09-09T03:03:01;0.10;;;0.10;;
72337;SDS011;60294;64.134;-21.862;2022-09-09T03:05:31;0.30;;;0.20;;
72337;SDS011;60294;64.134;-21.862;2022-09-09T03:07:57;0.65;;;0.20;;
72337;SDS011;60294;64.134;-21.862;2022-09-09T03:10:23;0.30;;;0.30;;
72337;SDS011;60294;64.134;-21.862;2022-09-09T03:12:49;0.88;;;0.20;;
72337;SDS011;60294;64.134;-21.862;2022-09-09T03:15:15;0.25;;;0.25;;
72337;SDS011;60294;64.134;-21.862;2022-09-09T03:17:41;0.80;;;0.20;;
72337;SDS011;60294;64.134;-21.862;2022-09-09T03:20:07;0.20;;;0.20;;
72337;SDS011;60294;64.134;-21.862;2022-09-09T03:22:33;0.10;;;0.10;;
72337;SDS011;60294;64.134;-21.862;2022-09-09T03:24:59;0.20;;;0.20;;
72337;SDS011;60294;64.134;-21.862;2022-09-09T03:27:27;0.10;;;0.10;;
72337;SDS011;60294;64.134;-21.862;2022-09-09T03:29:53;0.20;;;0.10;;
72337;SDS011;60294;64.134;-21.862;2022-09-09T03:32:21;1.35;;;0.32;;
72337;SDS011;60294;64.134;-21.862;2022-09-09T03:34:51;0.20;;;0.20;;
72337;SDS011;60294;64.134;-21.862;2022-09-09T03:37:17;1.45;;;0.20;;
72337;SDS011;60294;64.134;-21.862;2022-09-09T03:39:43;0.20;;;0.20;;
72337;SDS011;60294;64.134;-21.862;2022-09-09T03:42:12;0.52;;;0.20;;
72337;SDS011;60294;64.134;-21.862;2022-09-09T03:44:39;0.10;;;0.10;;
72337;SDS011;60294;64.134;-21.862;2022-09-09T03:47:07;1.35;;;0.22;;
72337;SDS011;60294;64.134;-21.862;2022-09-09T03:49:33;0.15;;;0.15;;
72337;SDS011;60294;64.134;-21.862;2022-09-09T03:51:59;0.20;;;0.20;;
72337;SDS011;60294;64.134;-21.862;2022-09-09T03:54:26;0.15;;;0.15;;
72337;SDS011;60294;64.134;-21.862;2022-09-09T03:56:52;0.45;;;0.10;;
72337;SDS011;60294;64.134;-21.862;2022-09-09T03:59:18;0.10;;;0.10;;
72337;SDS011;60294;64.134;-21.862;2022-09-09T04:01:46;0.65;;;0.30;;
72337;SDS011;60294;64.134;-21.862;2022-09-09T04:04:12;0.10;;;0.10;;
72337;SDS011;60294;64.134;-21.862;2022-09-09T04:06:38;0.30;;;0.30;;
72337;SDS011;60294;64.134;-21.862;2022-09-09T04:09:04;0.20;;;0.20;;
72337;SDS011;60294;64.134;-21.862;2022-09-09T04:11:30;0.10;;;0.10;;
72337;SDS011;60294;64.134;-21.862;2022-09-09T04:13:56;0.20;;;0.20;;
72337;SDS011;60294;64.134;-21.862;2022-09-09T04:16:22;0.28;;;0.20;;
72337;SDS011;60294;64.134;-21.862;2022-09-09T04:18:47;0.10;;;0.10;;
72337;SDS011;60294;64.134;-21.862;2022-09-09T04:21:13;0.20;;;0.10;;
72337;SDS011;60294;64.134;-21.862;2022-09-09T04:23:41;0.30;;;0.20;;
72337;SDS011;60294;64.134;-21.862;2022-09-09T04:26:07;0.10;;;0.10;;
72337;SDS011;60294;64.134;-21.862;2022-09-09T04:28:34;0.85;;;0.20;;
72337;SDS011;60294;64.134;-21.862;2022-09-09T04:31:09;0.10;;;0.10;;
72337;SDS011;60294;64.134;-21.862;2022-09-09T04:33:43;0.47;;;0.20;;
72337;SDS011;60294;64.134;-21.862;2022-09-09T04:36:09;0.32;;;0.30;;
72337;SDS011;60294;64.134;-21.862;2022-09-09T04:38:35;0.20;;;0.20;;
72337;SDS011;60294;64.134;-21.862;2022-09-09T04:41:01;0.30;;;0.20;;
72337;SDS011;60294;64.134;-21.862;2022-09-09T04:43:27;0.65;;;0.10;;
72337;SDS011;60294;64.134;-21.862;2022-09-09T04:45:53;0.40;;;0.10;;
72337;SDS011;60294;64.134;-21.862;2022-09-09T04:48:19;0.45;;;0.20;;
72337;SDS011;60294;64.134;-21.862;2022-09-09T04:50:59;0.10;;;0.10;;
72337;SDS011;60294;64.134;-21.862;2022-09-09T04:53:26;0.30;;;0.15;;
72337;SDS011;60294;64.134;-21.862;2022-09-09T04:58:32;0.10;;;0.10;;
72337;SDS011;60294;64.134;-21.862;2022-09-09T05:03:34;0.75;;;0.10;;
72337;SDS011;60294;64.134;-21.862;2022-09-09T05:06:04;0.20;;;0.20;;
72337;SDS011;60294;64.134;-21.862;2022-09-09T05:08:33;0.70;;;0.10;;
72337;SDS011;60294;64.134;-21.862;2022-09-09T05:10:59;0.43;;;0.20;;
72337;SDS011;60294;64.134;-21.862;2022-09-09T05:13:26;0.17;;;0.17;;
72337;SDS011;60294;64.134;-21.862;2022-09-09T05:15:53;0.10;;;0.10;;
72337;SDS011;60294;64.134;-21.862;2022-09-09T05:18:19;0.52;;;0.20;;
72337;SDS011;60294;64.134;-21.862;2022-09-09T05:20:47;0.20;;;0.20;;
72337;SDS011;60294;64.134;-21.862;2022-09-09T05:23:14;0.32;;;0.20;;
72337;SDS011;60294;64.134;-21.862;2022-09-09T05:25:40;1.58;;;0.13;;
72337;SDS011;60294;64.134;-21.862;2022-09-09T05:28:06;0.20;;;0.20;;
72337;SDS011;60294;64.134;-21.862;2022-09-09T05:30:33;0.20;;;0.20;;
72337;SDS011;60294;64.134;-21.862;2022-09-09T05:32:59;0.10;;;0.10;;
72337;SDS011;60294;64.134;-21.862;2022-09-09T05:35:25;0.17;;;0.17;;
72337;SDS011;60294;64.134;-21.862;2022-09-09T05:37:51;1.25;;;0.20;;
72337;SDS011;60294;64.134;-21.862;2022-09-09T05:40:17;0.13;;;0.13;;
72337;SDS011;60294;64.134;-21.862;2022-09-09T05:42:43;0.10;;;0.10;;
72337;SDS011;60294;64.134;-21.862;2022-09-09T05:45:09;0.10;;;0.10;;
72337;SDS011;60294;64.134;-21.862;2022-09-09T05:47:35;0.20;;;0.20;;
72337;SDS011;60294;64.134;-21.862;2022-09-09T05:50:02;0.20;;;0.20;;
72337;SDS011;60294;64.134;-21.862;2022-09-09T05:52:29;0.17;;;0.17;;
72337;SDS011;60294;64.134;-21.862;2022-09-09T05:54:55;0.10;;;0.10;;
72337;SDS011;60294;64.134;-21.862;2022-09-09T05:57:22;1.00;;;0.20;;
72337;SDS011;60294;64.134;-21.862;2022-09-09T05:59:48;0.10;;;0.10;;
72337;SDS011;60294;64.134;-21.862;2022-09-09T06:02:14;0.10;;;0.10;;
72337;SDS011;60294;64.134;-21.862;2022-09-09T06:04:40;0.10;;;0.10;;
72337;SDS011;60294;64.134;-21.862;2022-09-09T06:07:06;0.13;;;0.13;;
72337;SDS011;60294;64.134;-21.862;2022-09-09T06:09:32;0.43;;;0.30;;
72337;SDS011;60294;64.134;-21.862;2022-09-09T06:11:58;0.10;;;0.10;;
72337;SDS011;60294;64.134;-21.862;2022-09-09T06:14:24;0.10;;;0.10;;
72337;SDS011;60294;64.134;-21.862;2022-09-09T06:16:51;0.57;;;0.20;;
72337;SDS011;60294;64.134;-21.862;2022-09-09T06:19:17;3.53;;;0.20;;
72337;SDS011;60294;64.134;-21.862;2022-09-09T06:21:45;0.15;;;0.15;;
72337;SDS011;60294;64.134;-21.862;2022-09-09T06:24:12;0.20;;;0.20;;
72337;SDS011;60294;64.134;-21.862;2022-09-09T06:26:42;0.85;;;0.10;;
72337;SDS011;60294;64.134;-21.862;2022-09-09T06:29:08;0.17;;;0.17;;
72337;SDS011;60294;64.134;-21.862;2022-09-09T06:31:34;0.20;;;0.20;;
72337;SDS011;60294;64.134;-21.862;2022-09-09T06:34:02;0.65;;;0.20;;
72337;SDS011;60294;64.134;-21.862;2022-09-09T06:36:31;0.32;;;0.20;;
72337;SDS011;60294;64.134;-21.862;2022-09-09T06:38:58;1.17;;;0.20;;
72337;SDS011;60294;64.134;-21.862;2022-09-09T06:41:25;0.20;;;0.20;;
72337;SDS011;60294;64.134;-21.862;2022-09-09T06:43:52;0.10;;;0.10;;
72337;SDS011;60294;64.134;-21.862;2022-09-09T06:46:21;0.20;;;0.20;;
72337;SDS011;60294;64.134;-21.862;2022-09-09T06:48:48;1.40;;;0.25;;
72337;SDS011;60294;64.134;-21.862;2022-09-09T06:51:15;0.38;;;0.10;;
72337;SDS011;60294;64.134;-21.862;2022-09-09T06:53:52;0.10;;;0.10;;
72337;SDS011;60294;64.134;-21.862;2022-09-09T06:58:49;0.20;;;0.20;;
72337;SDS011;60294;64.134;-21.862;2022-09-09T07:01:17;0.17;;;0.17;;
72337;SDS011;60294;64.134;-21.862;2022-09-09T07:04:03;0.35;;;0.30;;
72337;SDS011;60294;64.134;-21.862;2022-09-09T07:06:33;1.85;;;0.20;;
72337;SDS011;60294;64.134;-21.862;2022-09-09T07:09:02;0.55;;;0.20;;
72337;SDS011;60294;64.134;-21.862;2022-09-09T07:11:34;1.73;;;0.30;;
72337;SDS011;60294;64.134;-21.862;2022-09-09T07:14:06;0.10;;;0.10;;
72337;SDS011;60294;64.134;-21.862;2022-09-09T07:16:33;0.20;;;0.20;;
72337;SDS011;60294;64.134;-21.862;2022-09-09T07:19:02;1.08;;;0.30;;
72337;SDS011;60294;64.134;-21.862;2022-09-09T07:21:29;1.48;;;0.22;;
72337;SDS011;60294;64.134;-21.862;2022-09-09T07:23:56;0.65;;;0.20;;
72337;SDS011;60294;64.134;-21.862;2022-09-09T07:26:23;1.02;;;0.32;;
72337;SDS011;60294;64.134;-21.862;2022-09-09T07:28:50;0.40;;;0.20;;
72337;SDS011;60294;64.134;-21.862;2022-09-09T07:31:20;0.40;;;0.30;;
72337;SDS011;60294;64.134;-21.862;2022-09-09T07:33:48;1.17;;;0.40;;
72337;SDS011;60294;64.134;-21.862;2022-09-09T07:36:22;0.57;;;0.40;;
72337;SDS011;60294;64.134;-21.862;2022-09-09T07:38:51;1.27;;;0.60;;
72337;SDS011;60294;64.134;-21.862;2022-09-09T07:41:26;4.07;;;1.35;;
72337;SDS011;60294;64.134;-21.862;2022-09-09T07:43:53;0.55;;;0.40;;
72337;SDS011;60294;64.134;-21.862;2022-09-09T07:46:20;1.20;;;0.60;;
72337;SDS011;60294;64.134;-21.862;2022-09-09T07:48:48;0.50;;;0.50;;
72337;SDS011;60294;64.134;-21.862;2022-09-09T07:51:19;0.50;;;0.50;;
72337;SDS011;60294;64.134;-21.862;2022-09-09T07:53:47;1.55;;;0.70;;
72337;SDS011;60294;64.134;-21.862;2022-09-09T07:56:16;0.73;;;0.60;;
72337;SDS011;60294;64.134;-21.862;2022-09-09T07:58:46;1.27;;;0.77;;
72337;SDS011;60294;64.134;-21.862;2022-09-09T08:01:17;3.47;;;0.85;;
72337;SDS011;60294;64.134;-21.862;2022-09-09T08:03:53;2.53;;;0.90;;
72337;SDS011;60294;64.134;-21.862;2022-09-09T08:06:19;1.67;;;0.63;;
72337;SDS011;60294;64.134;-21.862;2022-09-09T08:08:49;1.80;;;0.68;;
72337;SDS011;60294;64.134;-21.862;2022-09-09T08:11:15;1.70;;;0.70;;
72337;SDS011;60294;64.134;-21.862;2022-09-09T08:13:42;1.27;;;0.60;;
72337;SDS011;60294;64.134;-21.862;2022-09-09T08:16:09;3.03;;;0.90;;
72337;SDS011;60294;64.134;-21.862;2022-09-09T08:18:37;1.77;;;0.77;;
72337;SDS011;60294;64.134;-21.862;2022-09-09T08:26:07;1.95;;;0.82;;
72337;SDS011;60294;64.134;-21.862;2022-09-09T08:28:40;4.28;;;0.85;;
72337;SDS011;60294;64.134;-21.862;2022-09-09T08:31:07;1.13;;;0.60;;
72337;SDS011;60294;64.134;-21.862;2022-09-09T08:33:41;3.75;;;0.85;;
72337;SDS011;60294;64.134;-21.862;2022-09-09T08:36:10;1.17;;;0.70;;
72337;SDS011;60294;64.134;-21.862;2022-09-09T08:38:37;2.53;;;1.10;;
72337;SDS011;60294;64.134;-21.862;2022-09-09T08:55:56;2.33;;;0.80;;
72337;SDS011;60294;64.134;-21.862;2022-09-09T08:58:28;2.60;;;0.75;;
72337;SDS011;60294;64.134;-21.862;2022-09-09T09:03:43;1.40;;;0.65;;
72337;SDS011;60294;64.134;-21.862;2022-09-09T09:09:21;2.35;;;1.00;;
72337;SDS011;60294;64.134;-21.862;2022-09-09T09:11:49;2.45;;;0.75;;
72337;SDS011;60294;64.134;-21.862;2022-09-09T09:14:20;7.30;;;1.23;;
72337;SDS011;60294;64.134;-21.862;2022-09-09T09:19:35;4.63;;;1.15;;
72337;SDS011;60294;64.134;-21.862;2022-09-09T09:27:18;3.95;;;0.60;;
72337;SDS011;60294;64.134;-21.862;2022-09-09T09:29:51;0.75;;;0.65;;
72337;SDS011;60294;64.134;-21.862;2022-09-09T09:32:22;1.98;;;0.70;;
72337;SDS011;60294;64.134;-21.862;2022-09-09T09:34:51;2.33;;;0.77;;
72337;SDS011;60294;64.134;-21.862;2022-09-09T09:37:32;5.03;;;1.20;;
72337;SDS011;60294;64.134;-21.862;2022-09-09T09:40:16;3.50;;;0.85;;
72337;SDS011;60294;64.134;-21.862;2022-09-09T09:43:02;4.68;;;0.95;;
72337;SDS011;60294;64.134;-21.862;2022-09-09T09:45:34;2.90;;;0.90;;
72337;SDS011;60294;64.134;-21.862;2022-09-09T09:48:10;1.80;;;0.75;;
72337;SDS011;60294;64.134;-21.862;2022-09-09T09:50:46;3.38;;;1.20;;
72337;SDS011;60294;64.134;-21.862;2022-09-09T09:56:02;1.80;;;0.85;;
72337;SDS011;60294;64.134;-21.862;2022-09-09T09:58:36;3.08;;;1.10;;
72337;SDS011;60294;64.134;-21.862;2022-09-09T10:01:24;2.75;;;1.15;;
72337;SDS011;60294;64.134;-21.862;2022-09-09T10:03:57;3.97;;;1.10;;
72337;SDS011;60294;64.134;-21.862;2022-09-09T10:06:35;1.67;;;1.20;;
72337;SDS011;60294;64.134;-21.862;2022-09-09T10:09:03;3.80;;;0.80;;
72337;SDS011;60294;64.134;-21.862;2022-09-09T10:19:36;2.97;;;1.27;;
72337;SDS011;60294;64.134;-21.862;2022-09-09T10:27:47;1.45;;;1.00;;
72337;SDS011;60294;64.134;-21.862;2022-09-09T10:30:43;0.77;;;0.75;;
72337;SDS011;60294;64.134;-21.862;2022-09-09T10:33:33;3.75;;;1.00;;
72337;SDS011;60294;64.134;-21.862;2022-09-09T10:36:13;1.27;;;0.80;;
72337;SDS011;60294;64.134;-21.862;2022-09-09T10:38:45;1.38;;;1.15;;
72337;SDS011;60294;64.134;-21.862;2022-09-09T10:41:52;1.00;;;0.60;;
72337;SDS011;60294;64.134;-21.862;2022-09-09T10:47:37;1.10;;;0.73;;
72337;SDS011;60294;64.134;-21.862;2022-09-09T10:50:22;2.10;;;0.77;;
72337;SDS011;60294;64.134;-21.862;2022-09-09T10:55:35;0.85;;;0.57;;
72337;SDS011;60294;64.134;-21.862;2022-09-09T10:58:10;0.85;;;0.60;;
72337;SDS011;60294;64.134;-21.862;2022-09-09T11:00:45;1.65;;;0.60;;
72337;SDS011;60294;64.134;-21.862;2022-09-09T11:03:24;1.48;;;0.60;;
72337;SDS011;60294;64.134;-21.862;2022-09-09T11:05:59;1.15;;;0.52;;
72337;SDS011;60294;64.134;-21.862;2022-09-09T11:08:30;0.90;;;0.65;;
72337;SDS011;60294;64.134;-21.862;2022-09-09T11:21:42;5.10;;;0.93;;
72337;SDS011;60294;64.134;-21.862;2022-09-09T11:24:27;1.27;;;0.57;;
72337;SDS011;60294;64.134;-21.862;2022-09-09T11:40:24;1.90;;;0.55;;
72337;SDS011;60294;64.134;-21.862;2022-09-09T11:43:05;1.85;;;1.15;;
72337;SDS011;60294;64.134;-21.862;2022-09-09T11:45:49;2.67;;;0.70;;
72337;SDS011;60294;64.134;-21.862;2022-09-09T11:53:34;1.83;;;0.50;;
72337;SDS011;60294;64.134;-21.862;2022-09-09T11:56:12;0.47;;;0.40;;
72337;SDS011;60294;64.134;-21.862;2022-09-09T11:58:56;0.98;;;0.57;;
72337;SDS011;60294;64.134;-21.862;2022-09-09T12:01:34;1.63;;;0.50;;
72337;SDS011;60294;64.134;-21.862;2022-09-09T12:09:22;2.17;;;1.08;;
72337;SDS011;60294;64.134;-21.862;2022-09-09T12:15:00;1.00;;;0.65;;
72337;SDS011;60294;64.134;-21.862;2022-09-09T12:17:27;1.45;;;0.40;;
72337;SDS011;60294;64.134;-21.862;2022-09-09T12:20:13;4.45;;;1.30;;
72337;SDS011;60294;64.134;-21.862;2022-09-09T12:31:32;3.00;;;0.60;;
72337;SDS011;60294;64.134;-21.862;2022-09-09T12:34:09;1.90;;;0.70;;
72337;SDS011;60294;64.134;-21.862;2022-09-09T12:36:41;1.25;;;0.68;;
72337;SDS011;60294;64.134;-21.862;2022-09-09T12:39:18;1.15;;;0.70;;
72337;SDS011;60294;64.134;-21.862;2022-09-09T12:41:52;0.60;;;0.43;;
72337;SDS011;60294;64.134;-21.862;2022-09-09T12:44:21;3.25;;;0.60;;
72337;SDS011;60294;64.134;-21.862;2022-09-09T12:46:48;1.10;;;0.63;;
72337;SDS011;60294;64.134;-21.862;2022-09-09T12:49:47;1.02;;;0.50;;
72337;SDS011;60294;64.134;-21.862;2022-09-09T12:52:22;0.60;;;0.50;;
72337;SDS011;60294;64.134;-21.862;2022-09-09T12:54:59;3.28;;;0.70;;
72337;SDS011;60294;64.134;-21.862;2022-09-09T12:57:29;1.90;;;0.70;;
72337;SDS011;60294;64.134;-21.862;2022-09-09T13:00:12;1.60;;;0.68;;
72337;SDS011;60294;64.134;-21.862;2022-09-09T13:05:51;1.52;;;1.02;;
72337;SDS011;60294;64.134;-21.862;2022-09-09T13:08:19;2.05;;;1.10;;
72337;SDS011;60294;64.134;-21.862;2022-09-09T13:10:50;2.63;;;1.23;;
72337;SDS011;60294;64.134;-21.862;2022-09-09T13:16:05;3.53;;;1.25;;
72337;SDS011;60294;64.134;-21.862;2022-09-09T13:18:42;3.05;;;1.20;;
72337;SDS011;60294;64.134;-21.862;2022-09-09T13:21:08;4.70;;;1.02;;
72337;SDS011;60294;64.134;-21.862;2022-09-09T13:23:35;4.53;;;1.35;;
72337;SDS011;60294;64.134;-21.862;2022-09-09T13:26:05;3.83;;;1.05;;
72337;SDS011;60294;64.134;-21.862;2022-09-09T13:28:46;4.10;;;0.82;;
72337;SDS011;60294;64.134;-21.862;2022-09-09T13:31:33;3.00;;;0.90;;
72337;SDS011;60294;64.134;-21.862;2022-09-09T13:34:11;4.03;;;1.10;;
72337;SDS011;60294;64.134;-21.862;2022-09-09T13:36:39;2.58;;;0.73;;
72337;SDS011;60294;64.134;-21.862;2022-09-09T13:39:13;3.45;;;1.02;;
72337;SDS011;60294;64.134;-21.862;2022-09-09T13:41:42;1.98;;;0.88;;
72337;SDS011;60294;64.134;-21.862;2022-09-09T13:44:20;1.42;;;0.55;;
72337;SDS011;60294;64.134;-21.862;2022-09-09T13:46:58;2.30;;;0.57;;
72337;SDS011;60294;64.134;-21.862;2022-09-09T13:49:27;3.00;;;0.80;;
72337;SDS011;60294;64.134;-21.862;2022-09-09T13:52:08;3.47;;;0.90;;
72337;SDS011;60294;64.134;-21.862;2022-09-09T13:54:38;2.50;;;0.77;;
72337;SDS011;60294;64.134;-21.862;2022-09-09T13:57:05;2.42;;;1.10;;
72337;SDS011;60294;64.134;-21.862;2022-09-09T13:59:39;6.47;;;1.67;;
72337;SDS011;60294;64.134;-21.862;2022-09-09T14:02:06;5.22;;;1.30;;
72337;SDS011;60294;64.134;-21.862;2022-09-09T14:04:32;4.05;;;1.20;;
72337;SDS011;60294;64.134;-21.862;2022-09-09T14:07:00;1.88;;;1.10;;
72337;SDS011;60294;64.134;-21.862;2022-09-09T14:09:26;3.13;;;1.00;;
72337;SDS011;60294;64.134;-21.862;2022-09-09T14:11:52;5.78;;;1.30;;
72337;SDS011;60294;64.134;-21.862;2022-09-09T14:14:18;2.80;;;0.93;;
72337;SDS011;60294;64.134;-21.862;2022-09-09T14:16:43;2.17;;;1.20;;
72337;SDS011;60294;64.134;-21.862;2022-09-09T14:19:09;3.28;;;1.00;;
72337;SDS011;60294;64.134;-21.862;2022-09-09T14:21:35;2.20;;;1.25;;
72337;SDS011;60294;64.134;-21.862;2022-09-09T14:24:01;3.78;;;1.77;;
72337;SDS011;60294;64.134;-21.862;2022-09-09T14:26:27;3.13;;;1.52;;
72337;SDS011;60294;64.134;-21.862;2022-09-09T14:28:54;2.30;;;1.27;;
72337;SDS011;60294;64.134;-21.862;2022-09-09T14:31:21;4.05;;;1.70;;
72337;SDS011;60294;64.134;-21.862;2022-09-09T14:33:48;6.45;;;1.85;;
72337;SDS011;60294;64.134;-21.862;2022-09-09T14:36:13;4.30;;;1.42;;
72337;SDS011;60294;64.134;-21.862;2022-09-09T14:38:40;7.13;;;1.25;;
72337;SDS011;60294;64.134;-21.862;2022-09-09T14:41:07;4.47;;;0.88;;
72337;SDS011;60294;64.134;-21.862;2022-09-09T14:43:36;3.80;;;1.02;;
72337;SDS011;60294;64.134;-21.862;2022-09-09T14:46:10;3.05;;;1.30;;
72337;SDS011;60294;64.134;-21.862;2022-09-09T14:48:38;4.47;;;1.10;;
72337;SDS011;60294;64.134;-21.862;2022-09-09T14:53:34;7.72;;;1.67;;
72337;SDS011;60294;64.134;-21.862;2022-09-09T14:56:04;3.83;;;1.02;;
72337;SDS011;60294;64.134;-21.862;2022-09-09T14:58:40;1.92;;;0.90;;
72337;SDS011;60294;64.134;-21.862;2022-09-09T15:01:09;6.63;;;1.27;;
72337;SDS011;60294;64.134;-21.862;2022-09-09T15:03:37;5.63;;;1.10;;
72337;SDS011;60294;64.134;-21.862;2022-09-09T15:06:05;3.20;;;0.98;;
72337;SDS011;60294;64.134;-21.862;2022-09-09T15:08:37;2.88;;;0.80;;
72337;SDS011;60294;64.134;-21.862;2022-09-09T15:11:05;0.68;;;0.40;;
72337;SDS011;60294;64.134;-21.862;2022-09-09T15:13:35;1.67;;;0.40;;
72337;SDS011;60294;64.134;-21.862;2022-09-09T15:16:06;1.40;;;0.60;;
72337;SDS011;60294;64.134;-21.862;2022-09-09T15:18:34;1.10;;;0.50;;
72337;SDS011;60294;64.134;-21.862;2022-09-09T15:21:01;0.75;;;0.45;;
72337;SDS011;60294;64.134;-21.862;2022-09-09T15:23:33;1.10;;;0.28;;
72337;SDS011;60294;64.134;-21.862;2022-09-09T15:26:00;5.05;;;0.63;;
72337;SDS011;60294;64.134;-21.862;2022-09-09T15:28:26;0.63;;;0.50;;
72337;SDS011;60294;64.134;-21.862;2022-09-09T15:30:53;0.65;;;0.30;;
72337;SDS011;60294;64.134;-21.862;2022-09-09T15:33:22;0.50;;;0.30;;
72337;SDS011;60294;64.134;-21.862;2022-09-09T15:35:48;1.75;;;0.32;;
72337;SDS011;60294;64.134;-21.862;2022-09-09T15:38:15;4.75;;;0.98;;
72337;SDS011;60294;64.134;-21.862;2022-09-09T15:40:42;0.80;;;0.28;;
72337;SDS011;60294;64.134;-21.862;2022-09-09T15:43:08;1.35;;;0.40;;
72337;SDS011;60294;64.134;-21.862;2022-09-09T15:45:35;5.38;;;0.73;;
72337;SDS011;60294;64.134;-21.862;2022-09-09T15:48:05;3.20;;;0.80;;
72337;SDS011;60294;64.134;-21.862;2022-09-09T15:50:30;1.95;;;0.68;;
72337;SDS011;60294;64.134;-21.862;2022-09-09T15:52:57;2.83;;;0.63;;
72337;SDS011;60294;64.134;-21.862;2022-09-09T15:55:23;1.60;;;0.50;;
72337;SDS011;60294;64.134;-21.862;2022-09-09T15:57:50;2.22;;;0.50;;
72337;SDS011;60294;64.134;-21.862;2022-09-09T16:00:17;1.15;;;0.30;;
72337;SDS011;60294;64.134;-21.862;2022-09-09T16:02:45;2.58;;;0.70;;
72337;SDS011;60294;64.134;-21.862;2022-09-09T16:05:12;0.95;;;0.38;;
72337;SDS011;60294;64.134;-21.862;2022-09-09T16:07:38;1.05;;;0.38;;
72337;SDS011;60294;64.134;-21.862;2022-09-09T16:10:04;1.85;;;0.30;;
72337;SDS011;60294;64.134;-21.862;2022-09-09T16:12:31;0.52;;;0.30;;
72337;SDS011;60294;64.134;-21.862;2022-09-09T16:14:57;0.85;;;0.60;;
72337;SDS011;60294;64.134;-21.862;2022-09-09T16:17:24;3.05;;;0.60;;
72337;SDS011;60294;64.134;-21.862;2022-09-09T16:19:50;1.95;;;0.32;;
72337;SDS011;60294;64.134;-21.862;2022-09-09T16:22:16;0.65;;;0.32;;
72337;SDS011;60294;64.134;-21.862;2022-09-09T16:24:43;1.25;;;0.20;;
72337;SDS011;60294;64.134;-21.862;2022-09-09T16:27:10;0.38;;;0.30;;
72337;SDS011;60294;64.134;-21.862;2022-09-09T16:29:36;1.77;;;0.50;;
72337;SDS011;60294;64.134;-21.862;2022-09-09T16:32:02;1.10;;;0.32;;
72337;SDS011;60294;64.134;-21.862;2022-09-09T16:34:28;3.10;;;0.30;;
72337;SDS011;60294;64.134;-21.862;2022-09-09T16:36:54;0.28;;;0.17;;
72337;SDS011;60294;64.134;-21.862;2022-09-09T16:39:21;0.40;;;0.20;;
72337;SDS011;60294;64.134;-21.862;2022-09-09T16:41:47;0.88;;;0.35;;
72337;SDS011;60294;64.134;-21.862;2022-09-09T16:44:14;0.88;;;0.40;;
72337;SDS011;60294;64.134;-21.862;2022-09-09T16:46:43;3.03;;;0.30;;
72337;SDS011;60294;64.134;-21.862;2022-09-09T16:49:10;1.08;;;0.20;;
72337;SDS011;60294;64.134;-21.862;2022-09-09T16:51:39;0.20;;;0.20;;
72337;SDS011;60294;64.134;-21.862;2022-09-09T16:54:07;0.63;;;0.20;;
72337;SDS011;60294;64.134;-21.862;2022-09-09T16:56:34;3.03;;;0.40;;
72337;SDS011;60294;64.134;-21.862;2022-09-09T16:59:06;2.60;;;0.38;;
72337;SDS011;60294;64.134;-21.862;2022-09-09T17:01:35;0.20;;;0.17;;
72337;SDS011;60294;64.134;-21.862;2022-09-09T17:04:04;2.50;;;0.40;;
72337;SDS011;60294;64.134;-21.862;2022-09-09T17:06:31;1.38;;;0.30;;
72337;SDS011;60294;64.134;-21.862;2022-09-09T17:09:03;0.47;;;0.22;;
72337;SDS011;60294;64.134;-21.862;2022-09-09T17:11:34;0.40;;;0.30;;
72337;SDS011;60294;64.134;-21.862;2022-09-09T17:14:00;0.50;;;0.22;;
72337;SDS011;60294;64.134;-21.862;2022-09-09T17:16:27;0.45;;;0.25;;
72337;SDS011;60294;64.134;-21.862;2022-09-09T17:18:56;0.10;;;0.10;;
72337;SDS011;60294;64.134;-21.862;2022-09-09T17:21:24;0.57;;;0.32;;
72337;SDS011;60294;64.134;-21.862;2022-09-09T17:23:51;0.85;;;0.30;;
72337;SDS011;60294;64.134;-21.862;2022-09-09T17:26:18;0.10;;;0.10;;